createdAt,value
2022-09-28T03:10:40.909Z,98921.75
2022-09-28T03:13:43.962Z,98916.16
2022-09-28T03:16:46.708Z,98928.38
2022-09-28T03:19:49.182Z,98919.72
2022-09-28T03:23:12.444Z,98924.84
2022-09-28T03:26:14.507Z,98922.28
2022-09-28T03:29:17.010Z,98920.69
2022-09-28T03:32:19.878Z,98922.66
2022-09-28T03:35:21.905Z,98928.22
2022-09-28T03:38:24.431Z,98916.94
2022-09-28T03:41:29.963Z,98915.62
2022-09-28T03:44:32.501Z,98916.56
2022-09-28T03:47:34.574Z,98918.22
2022-09-28T03:50:36.902Z,98916.34
2022-09-28T03:53:39.566Z,98925.91
2022-09-28T03:56:41.958Z,98932.13
2022-09-28T03:59:44.032Z,98932.38
2022-09-28T04:02:46.345Z,98931.22
2022-09-28T04:05:53.045Z,98935.34
2022-09-28T04:08:55.153Z,98923.81
2022-09-28T04:12:03.827Z,98926.66
2022-09-28T04:15:07.954Z,98924.06
2022-09-28T04:18:11.713Z,98923.44
2022-09-28T04:21:17.153Z,98911.34
2022-09-28T04:24:20.270Z,98928.22
2022-09-28T04:27:41.358Z,98922.69
2022-09-28T04:30:46.001Z,98918.53
2022-09-28T04:33:48.356Z,98909.66
2022-09-28T04:36:51.126Z,98922.19
2022-09-28T04:39:53.872Z,98909.50
2022-09-28T04:42:56.746Z,98919.94
2022-09-28T04:46:01.012Z,98921.00
2022-09-28T04:49:04.356Z,98920.06
2022-09-28T04:52:06.707Z,98913.25
2022-09-28T04:55:12.497Z,98919.28
2022-09-28T04:58:14.553Z,98917.47
2022-09-28T05:01:18.906Z,98910.50
2022-09-28T05:04:26.033Z,98914.38
2022-09-28T05:07:29.307Z,98917.63
2022-09-28T05:10:32.909Z,98918.91
2022-09-28T05:13:45.086Z,98921.56
2022-09-28T05:16:48.055Z,98929.41
2022-09-28T05:19:51.559Z,98932.66
2022-09-28T05:22:53.638Z,98929.84
2022-09-28T05:25:56.044Z,98928.97
2022-09-28T05:28:58.438Z,98934.16
2022-09-28T05:32:07.436Z,98938.78
2022-09-28T05:35:11.133Z,98938.03
2022-09-28T05:38:13.577Z,98943.25
2022-09-28T05:41:15.788Z,98949.22
2022-09-28T05:44:18.242Z,98946.19
2022-09-28T05:47:20.486Z,98947.06
2022-09-28T05:50:23.055Z,98947.81
2022-09-28T05:53:25.844Z,98940.31
2022-09-28T05:56:30.791Z,98923.31
2022-09-28T05:59:35.061Z,98930.06
2022-09-28T06:02:37.665Z,98927.78
2022-09-28T06:05:40.946Z,98923.22
2022-09-28T06:08:44.006Z,98927.81
2022-09-28T06:11:48.338Z,98928.72
2022-09-28T06:14:52.148Z,98922.47
2022-09-28T06:18:03.742Z,98916.69
2022-09-28T06:21:10.795Z,98921.03
2022-09-28T06:24:13.465Z,98919.31
2022-09-28T06:27:16.159Z,98917.13
2022-09-28T06:30:18.577Z,98921.41
2022-09-28T06:33:20.693Z,98931.06
2022-09-28T06:36:23.574Z,98933.41
2022-09-28T06:39:25.862Z,98936.75
2022-09-28T06:42:28.252Z,98927.66
2022-09-28T06:45:31.622Z,98929.16
2022-09-28T06:48:36.363Z,98929.25
2022-09-28T06:51:38.574Z,98932.66
2022-09-28T06:54:42.115Z,98943.56
2022-09-28T06:57:44.705Z,98940.09
2022-09-28T07:00:49.944Z,98949.87
2022-09-28T07:03:55.512Z,98946.78
2022-09-28T07:06:59.843Z,98941.87
2022-09-28T07:10:03.864Z,98939.38
2022-09-28T07:13:12.135Z,98938.41
2022-09-28T07:16:22.730Z,98939.38
2022-09-28T07:19:28.239Z,98929.22
2022-09-28T07:22:40.146Z,98938.97
2022-09-28T07:25:47.819Z,98942.41
2022-09-28T07:28:56.014Z,98927.31
2022-09-28T07:31:59.671Z,98923.84
2022-09-28T07:35:07.987Z,98919.78
2022-09-28T07:38:11.046Z,98920.88
2022-09-28T07:41:14.161Z,98925.78
2022-09-28T07:44:18.941Z,98926.28
2022-09-28T07:47:30.777Z,98916.31
2022-09-28T07:50:35.393Z,98924.91
2022-09-28T07:53:40.312Z,98930.91
2022-09-28T07:56:43.751Z,98931.12
2022-09-28T07:59:46.607Z,98931.28
2022-09-28T08:02:52.630Z,98935.59
2022-09-28T08:06:01.130Z,98941.50
2022-09-28T08:09:03.427Z,98940.66
2022-09-28T08:12:07.792Z,98937.53
2022-09-28T08:15:11.424Z,98934.22
2022-09-28T08:18:13.908Z,98927.44
2022-09-28T08:21:34.820Z,98915.06
2022-09-28T08:24:38.340Z,98910.66
2022-09-28T08:27:41.365Z,98896.81
2022-09-28T08:30:47.665Z,98895.13
2022-09-28T08:33:53.689Z,98889.88
2022-09-28T08:37:01.834Z,98893.44
2022-09-28T08:40:06.597Z,98890.81
2022-09-28T08:43:36.167Z,98899.56
2022-09-28T08:46:45.385Z,98918.69
2022-09-28T08:49:50.251Z,98921.16
2022-09-28T08:53:01.935Z,98917.72
2022-09-28T08:56:10.542Z,98925.72
2022-09-28T08:59:17.378Z,98922.25
2022-09-28T09:02:39.230Z,98915.06
2022-09-28T09:06:00.343Z,98915.97
2022-09-28T09:09:19.182Z,98908.97
2022-09-28T09:12:42.647Z,98916.69
2022-09-28T09:15:48.108Z,98906.47
2022-09-28T09:18:55.745Z,98897.84
2022-09-28T09:22:30.285Z,98902.47
2022-09-28T09:25:42.872Z,98904.25
2022-09-28T09:29:00.522Z,98903.66
2022-09-28T09:32:28.980Z,98898.41
2022-09-28T09:36:19.319Z,98895.06
2022-09-28T09:39:59.982Z,98887.31
2022-09-28T09:43:31.567Z,98879.50
2022-09-28T09:46:45.460Z,98885.84
2022-09-28T09:49:55.998Z,98889.41
2022-09-28T09:53:01.092Z,98891.06
2022-09-28T09:56:16.964Z,98892.72
2022-09-28T09:59:27.677Z,98894.66
2022-09-28T10:02:34.277Z,98889.59
2022-09-28T10:05:38.937Z,98892.19
2022-09-28T10:08:46.526Z,98885.06
2022-09-28T10:11:50.178Z,98879.84
2022-09-28T10:14:55.206Z,98891.25
2022-09-28T10:18:03.586Z,98898.22
2022-09-28T10:21:15.909Z,98901.75
2022-09-28T10:24:32.137Z,98896.41
2022-09-28T10:27:38.587Z,98900.06
2022-09-28T10:30:42.733Z,98895.78
2022-09-28T10:33:44.960Z,98903.75
2022-09-28T10:36:52.492Z,98899.38
2022-09-28T10:39:56.022Z,98895.78
2022-09-28T10:43:28.541Z,98902.00
2022-09-28T10:46:31.134Z,98899.38
2022-09-28T10:49:46.834Z,98902.87
2022-09-28T10:52:49.518Z,98900.25
2022-09-28T10:56:21.630Z,98894.06
2022-09-28T10:59:30.959Z,98887.81
2022-09-28T11:02:37.372Z,98881.72
2022-09-28T11:05:40.468Z,98894.94
2022-09-28T11:08:44.659Z,98883.47
2022-09-28T11:11:47.519Z,98884.41
2022-09-28T11:15:06.106Z,98877.38
2022-09-28T11:18:25.735Z,98875.53
2022-09-28T11:21:32.138Z,98863.16
2022-09-28T11:24:35.137Z,98862.25
2022-09-28T11:27:39.565Z,98853.19
2022-09-28T11:30:48.456Z,98837.16
2022-09-28T11:34:02.632Z,98831.28
2022-09-28T11:37:27.143Z,98843.25
2022-09-28T11:40:47.661Z,98834.00
2022-09-28T11:43:59.807Z,98852.72
2022-09-28T11:47:21.053Z,98854.41
2022-09-28T11:50:54.295Z,98864.13
2022-09-28T11:54:14.222Z,98851.88
2022-09-28T11:57:22.155Z,98848.38
2022-09-28T12:00:25.056Z,98836.03
2022-09-28T12:03:43.593Z,98828.13
2022-09-28T12:06:55.778Z,98839.53
2022-09-28T12:10:11.577Z,98824.56
2022-09-28T12:13:22.540Z,98821.00
2022-09-28T12:17:00.515Z,98812.25
2022-09-28T12:20:01.011Z,98807.03
2022-09-28T12:23:14.557Z,98816.62
2022-09-28T12:26:37.236Z,98820.19
2022-09-28T12:29:51.691Z,98815.88
2022-09-28T12:33:19.704Z,98801.75
2022-09-28T12:36:49.871Z,98802.53
2022-09-28T12:40:23.000Z,98787.59
2022-09-28T12:43:33.402Z,98791.19
2022-09-28T12:47:00.919Z,98790.31
2022-09-28T12:50:39.263Z,98774.41
2022-09-28T12:53:57.481Z,98782.44
2022-09-28T12:57:02.819Z,98788.56
2022-09-28T13:00:08.440Z,98779.81
2022-09-28T13:03:21.113Z,98788.56
2022-09-28T13:06:35.134Z,98791.97
2022-09-28T13:10:23.020Z,98786.72
2022-09-28T13:13:56.318Z,98786.75
2022-09-28T13:17:26.351Z,98782.44
2022-09-28T13:20:39.967Z,98776.28
2022-09-28T13:23:46.158Z,98767.50
2022-09-28T13:26:49.477Z,98785.06
2022-09-28T13:29:54.287Z,98780.66
2022-09-28T13:33:00.687Z,98787.66
2022-09-28T13:36:24.196Z,98783.25
2022-09-28T13:39:37.658Z,98782.41
2022-09-28T13:42:46.006Z,98770.12
2022-09-28T13:45:54.631Z,98771.88
2022-09-28T13:49:12.128Z,98766.59
2022-09-28T13:52:30.983Z,98767.50
2022-09-28T13:55:38.350Z,98771.88
2022-09-28T13:58:53.022Z,98770.12
2022-09-28T14:02:31.857Z,98758.69
2022-09-28T14:05:47.861Z,98764.84
2022-09-28T14:08:59.119Z,98763.97
2022-09-28T14:12:04.259Z,98766.59
2022-09-28T14:15:28.927Z,98770.12
2022-09-28T14:18:33.763Z,98783.28
2022-09-28T14:21:53.046Z,98772.72
2022-09-28T14:25:13.557Z,98774.44
2022-09-28T14:28:34.510Z,98768.25
2022-09-28T14:31:42.318Z,98763.91
2022-09-28T14:34:55.746Z,98757.78
2022-09-28T14:38:22.602Z,98760.41
2022-09-28T14:41:25.057Z,98772.69
2022-09-28T14:44:27.375Z,98765.59
2022-09-28T14:47:44.712Z,98765.53
2022-09-28T14:50:49.843Z,98754.94
2022-09-28T14:53:52.422Z,98754.06
2022-09-28T14:56:57.446Z,98749.63
2022-09-28T15:00:00.686Z,98750.47
2022-09-28T15:03:08.912Z,98753.09
2022-09-28T15:06:19.130Z,98752.19
2022-09-28T15:09:48.369Z,98750.41
2022-09-28T15:12:54.024Z,98747.75
